createdAt,value
2023-03-24T00:00:00.659Z,0
2023-03-24T00:01:40.462Z,0
2023-03-24T00:03:20.101Z,0
2023-03-24T00:04:59.789Z,0
2023-03-24T00:06:39.717Z,0
2023-03-24T00:08:19.327Z,0
2023-03-24T00:09:59.168Z,0
2023-03-24T00:11:38.922Z,0
2023-03-24T00:13:18.789Z,0
2023-03-24T00:14:58.400Z,0
2023-03-24T00:16:38.297Z,0
2023-03-24T00:18:17.959Z,0
2023-03-24T00:19:57.860Z,0
2023-03-24T00:21:37.670Z,0
2023-03-24T00:23:17.242Z,0
2023-03-24T00:24:57.001Z,0
2023-03-24T00:26:36.777Z,0
2023-03-24T00:28:16.561Z,0
2023-03-24T00:29:56.350Z,0
2023-03-24T00:31:36.087Z,0
2023-03-24T00:33:15.839Z,0
2023-03-24T00:34:55.764Z,0
2023-03-24T00:36:35.561Z,0
2023-03-24T00:38:15.134Z,0
2023-03-24T00:39:55.106Z,0
2023-03-24T00:41:34.682Z,0
2023-03-24T00:43:14.515Z,0
2023-03-24T00:44:54.391Z,0
2023-03-24T00:46:34.031Z,0
2023-03-24T00:48:13.927Z,0
2023-03-24T00:49:53.533Z,0
2023-03-24T00:51:33.283Z,0
2023-03-24T00:53:13.061Z,0
2023-03-24T00:54:52.865Z,0
2023-03-24T00:56:32.620Z,0
2023-03-24T00:58:12.377Z,0
2023-03-24T00:59:52.221Z,0
2023-03-24T01:01:31.923Z,0
2023-03-24T01:03:11.764Z,0
2023-03-24T01:04:51.519Z,0
2023-03-24T01:06:31.199Z,0
2023-03-24T01:08:11.053Z,0
2023-03-24T01:09:50.717Z,0
2023-03-24T01:11:30.571Z,0
2023-03-24T01:13:10.324Z,0
2023-03-24T01:14:50.216Z,0
2023-03-24T01:16:29.786Z,0
2023-03-24T01:18:09.601Z,0
2023-03-24T01:19:49.457Z,0
2023-03-24T01:21:29.156Z,0
2023-03-24T01:23:08.941Z,0
2023-03-24T01:24:48.752Z,0
2023-03-24T01:26:28.414Z,0
2023-03-24T01:28:08.277Z,0
2023-03-24T01:29:48.001Z,0
2023-03-24T01:31:27.678Z,0
2023-03-24T01:33:07.469Z,0
2023-03-24T01:34:47.438Z,0
2023-03-24T01:36:27.060Z,0
2023-03-24T01:38:06.764Z,0
2023-03-24T01:39:46.614Z,0
2023-03-24T01:41:26.456Z,0
2023-03-24T01:43:06.123Z,0
2023-03-24T01:44:45.937Z,0
2023-03-24T01:46:25.601Z,0
2023-03-24T01:48:05.464Z,0
2023-03-24T01:49:45.158Z,0
2023-03-24T01:51:24.903Z,0
2023-03-24T01:53:04.735Z,0
2023-03-24T01:54:44.617Z,0
2023-03-24T01:56:24.224Z,0
2023-03-24T01:58:04.007Z,0
2023-03-24T01:59:43.817Z,0
2023-03-24T02:01:23.505Z,0
2023-03-24T02:03:03.353Z,0
2023-03-24T02:04:43.264Z,0
2023-03-24T02:06:22.854Z,0
2023-03-24T02:08:02.677Z,0
2023-03-24T02:09:42.478Z,0
2023-03-24T02:11:22.124Z,0
2023-03-24T02:13:01.882Z,0
2023-03-24T02:14:41.794Z,0
2023-03-24T02:16:21.415Z,0
2023-03-24T02:18:01.218Z,0
2023-03-24T02:19:41.075Z,0
2023-03-24T02:21:20.841Z,0
2023-03-24T02:23:00.653Z,0
2023-03-24T02:24:40.250Z,0
2023-03-24T02:26:20.024Z,0
2023-03-24T02:27:59.849Z,0
2023-03-24T02:29:39.602Z,0
2023-03-24T02:31:19.401Z,0
2023-03-24T02:32:59.166Z,0
2023-03-24T02:34:38.973Z,0
2023-03-24T02:36:18.708Z,0
2023-03-24T02:37:58.492Z,0
2023-03-24T02:39:38.210Z,0
2023-03-24T02:41:17.968Z,0
2023-03-24T02:42:57.761Z,0
2023-03-24T02:44:37.618Z,0
2023-03-24T02:46:17.427Z,0
2023-03-24T02:47:57.002Z,0
2023-03-24T02:49:36.769Z,0
2023-03-24T02:51:16.696Z,0
2023-03-24T02:52:56.369Z,0
2023-03-24T02:54:36.162Z,0
2023-03-24T02:56:15.844Z,0
2023-03-24T02:57:55.665Z,0
2023-03-24T02:59:35.375Z,0
2023-03-24T03:01:15.189Z,0
2023-03-24T03:02:55.005Z,0
2023-03-24T03:04:34.913Z,0
2023-03-24T03:06:14.508Z,0
2023-03-24T03:07:54.203Z,0
2023-03-24T03:09:33.973Z,0
2023-03-24T03:11:13.884Z,0
2023-03-24T03:12:53.670Z,0
2023-03-24T03:14:33.274Z,0
2023-03-24T03:16:13.134Z,0
2023-03-24T03:17:52.822Z,0
2023-03-24T03:19:32.559Z,0
2023-03-24T03:21:12.388Z,0
2023-03-24T03:22:52.285Z,0
2023-03-24T03:24:32.073Z,0
2023-03-24T03:26:11.774Z,0
2023-03-24T03:27:51.560Z,0
2023-03-24T03:29:31.364Z,0
2023-03-24T03:31:11.119Z,0
2023-03-24T03:32:50.855Z,0
2023-03-24T03:34:30.488Z,0
2023-03-24T03:36:10.439Z,0
2023-03-24T03:37:50.106Z,0
2023-03-24T03:39:29.935Z,0
2023-03-24T03:41:09.686Z,0
2023-03-24T03:42:49.489Z,0
2023-03-24T03:44:29.095Z,0
2023-03-24T03:46:08.986Z,0
2023-03-24T03:47:48.736Z,0
2023-03-24T03:49:28.483Z,0
2023-03-24T03:51:08.232Z,0
2023-03-24T03:52:47.949Z,0
2023-03-24T03:54:27.735Z,0
2023-03-24T03:56:07.459Z,0
2023-03-24T03:57:47.275Z,0
2023-03-24T03:59:26.987Z,0
2023-03-24T04:01:06.811Z,0
2023-03-24T04:02:46.631Z,0
2023-03-24T04:04:26.327Z,0
2023-03-24T04:06:06.102Z,0
2023-03-24T04:07:45.828Z,0
2023-03-24T04:09:25.609Z,0
2023-03-24T04:11:05.357Z,0
2023-03-24T04:12:45.131Z,0
2023-03-24T04:14:24.898Z,0
2023-03-24T04:16:04.702Z,0
2023-03-24T04:17:44.457Z,0
2023-03-24T04:19:24.213Z,0
2023-03-24T04:21:04.020Z,0
2023-03-24T04:22:43.722Z,0
2023-03-24T04:24:23.531Z,0
2023-03-24T04:26:03.277Z,0
2023-03-24T04:27:43.057Z,0
2023-03-24T04:29:22.810Z,0
2023-03-24T04:31:02.618Z,0
2023-03-24T04:32:42.360Z,0
2023-03-24T04:34:22.142Z,0
2023-03-24T04:36:01.898Z,0
2023-03-24T04:37:41.699Z,0
2023-03-24T04:39:21.460Z,0
2023-03-24T04:41:01.314Z,0
2023-03-24T04:42:40.954Z,0
2023-03-24T04:44:20.722Z,0
2023-03-24T04:46:00.556Z,0
2023-03-24T04:47:40.237Z,0
2023-03-24T04:49:20.020Z,0
2023-03-24T04:50:59.820Z,0
2023-03-24T04:52:39.539Z,0
2023-03-24T04:54:19.293Z,0
2023-03-24T04:55:59.164Z,0
2023-03-24T04:57:38.847Z,0
2023-03-24T04:59:18.595Z,0
2023-03-24T05:00:58.447Z,0
2023-03-24T05:02:38.140Z,0
2023-03-24T05:04:17.895Z,0
2023-03-24T05:05:57.655Z,0
2023-03-24T05:07:37.433Z,0
2023-03-24T05:09:17.324Z,0
2023-03-24T05:10:56.983Z,0
2023-03-24T05:12:36.734Z,0
2023-03-24T05:14:16.499Z,0
2023-03-24T05:15:56.289Z,0
2023-03-24T05:17:36.036Z,0
2023-03-24T05:19:15.811Z,0
2023-03-24T05:20:55.562Z,0
2023-03-24T05:22:35.327Z,0
2023-03-24T05:24:15.111Z,0.01
2023-03-24T05:25:54.908Z,0.03
2023-03-24T05:27:34.637Z,0.07
2023-03-24T05:29:14.409Z,0.11
2023-03-24T05:30:54.177Z,0.14
2023-03-24T05:32:33.938Z,0.17
2023-03-24T05:34:13.710Z,0.17
2023-03-24T05:35:53.486Z,0.17
2023-03-24T05:37:33.258Z,0.18
2023-03-24T05:39:13.057Z,0.18
2023-03-24T05:40:52.799Z,0.13
2023-03-24T05:42:32.566Z,0.11
2023-03-24T05:44:12.353Z,0.08
2023-03-24T05:45:52.125Z,0.06
2023-03-24T05:47:31.884Z,0.08
2023-03-24T05:49:11.681Z,0.11
2023-03-24T05:50:51.478Z,0.13
2023-03-24T05:52:31.263Z,0.09
2023-03-24T05:54:10.957Z,0.06
2023-03-24T05:55:50.730Z,0.02
2023-03-24T05:57:30.654Z,0
2023-03-24T05:59:10.261Z,0.01
2023-03-24T06:00:50.029Z,0.01
2023-03-24T06:02:29.790Z,0.01
2023-03-24T06:04:09.568Z,0
2023-03-24T06:05:49.399Z,0
2023-03-24T06:07:29.104Z,0
2023-03-24T06:09:08.872Z,0
2023-03-24T06:10:48.655Z,0.02
2023-03-24T06:12:28.430Z,0.07
2023-03-24T06:14:08.182Z,0.11
2023-03-24T06:15:47.979Z,0.11
2023-03-24T06:17:27.771Z,0.09
2023-03-24T06:19:07.500Z,0.07
2023-03-24T06:20:47.306Z,0.1
2023-03-24T06:22:27.027Z,0.11
2023-03-24T06:24:06.789Z,0.08
2023-03-24T06:25:46.564Z,0.03
2023-03-24T06:27:26.331Z,0.04
2023-03-24T06:29:06.121Z,0.1
2023-03-24T06:30:45.872Z,0.31
2023-03-24T06:32:25.691Z,0.47
2023-03-24T06:34:05.439Z,0.49
2023-03-24T06:35:45.277Z,0.56
2023-03-24T06:37:24.966Z,0.52
2023-03-24T06:39:04.725Z,0.48
2023-03-24T06:40:44.518Z,0.44
2023-03-24T06:42:24.267Z,0.48
2023-03-24T06:44:04.079Z,0.44
2023-03-24T06:45:43.864Z,0.5
2023-03-24T06:47:23.594Z,0.61
2023-03-24T06:49:03.352Z,0.64
2023-03-24T06:50:43.120Z,0.62
2023-03-24T06:52:22.978Z,1.14
2023-03-24T06:54:02.732Z,0.86
2023-03-24T06:55:42.438Z,0.85
2023-03-24T06:57:22.202Z,0.83
2023-03-24T06:59:01.994Z,0.74
2023-03-24T07:00:41.821Z,0.69
2023-03-24T07:02:21.642Z,0.66
2023-03-24T07:04:01.288Z,0.67
2023-03-24T07:05:41.056Z,0.7
2023-03-24T07:07:20.846Z,0.76
2023-03-24T07:09:00.605Z,0.77
2023-03-24T07:10:40.365Z,0.74
2023-03-24T07:12:20.142Z,0.82
2023-03-24T07:13:59.908Z,1.01
2023-03-24T07:15:39.685Z,1.16
2023-03-24T07:17:19.464Z,1.2
2023-03-24T07:18:59.238Z,1.2
2023-03-24T07:20:39.078Z,1.09
2023-03-24T07:22:18.776Z,1.01
2023-03-24T07:23:58.522Z,1.03
2023-03-24T07:25:38.339Z,1.19
2023-03-24T07:27:18.065Z,1.29
2023-03-24T07:28:57.918Z,1.57
2023-03-24T07:30:37.626Z,1.47
2023-03-24T07:32:17.407Z,1.38
2023-03-24T07:33:57.151Z,1.36
2023-03-24T07:35:36.990Z,1.35
2023-03-24T07:37:16.686Z,1.32
2023-03-24T07:38:56.515Z,1.3
2023-03-24T07:40:36.280Z,1.28
2023-03-24T07:42:16.126Z,1.28
2023-03-24T07:43:55.935Z,1.27
2023-03-24T07:45:35.641Z,1.27
2023-03-24T07:47:15.329Z,1.28
2023-03-24T07:48:55.077Z,1.3
2023-03-24T07:50:34.848Z,1.28
2023-03-24T07:52:14.739Z,1.29
2023-03-24T07:53:54.533Z,1.31
2023-03-24T07:55:34.310Z,1.27
2023-03-24T07:57:14.015Z,1.31
2023-03-24T07:58:53.898Z,1.3
2023-03-24T08:00:33.489Z,1.31
2023-03-24T08:02:13.521Z,1.31
2023-03-24T08:03:53.041Z,1.27
2023-03-24T08:05:32.794Z,1.28
2023-03-24T08:07:12.611Z,1.29
2023-03-24T08:08:52.324Z,1.29
2023-03-24T08:10:32.106Z,1.28
2023-03-24T08:12:11.866Z,1.26
2023-03-24T08:13:51.658Z,1.26
2023-03-24T08:15:31.396Z,1.26
2023-03-24T08:17:11.186Z,1.25
2023-03-24T08:18:50.971Z,1.24
2023-03-24T08:20:30.722Z,0.96
2023-03-24T08:22:10.501Z,0.43
2023-03-24T08:23:50.256Z,0.45
2023-03-24T08:25:30.034Z,0.79
2023-03-24T08:27:09.820Z,0.44
2023-03-24T08:28:49.581Z,0.5
2023-03-24T08:30:29.350Z,0.57
2023-03-24T08:32:09.111Z,0.52
2023-03-24T08:33:48.896Z,0.5
2023-03-24T08:35:28.833Z,0.46
2023-03-24T08:37:08.539Z,0.38
2023-03-24T08:38:48.199Z,0.45
2023-03-24T08:40:28.008Z,0.42
2023-03-24T08:42:07.737Z,0.52
2023-03-24T08:43:47.503Z,0.57
2023-03-24T08:45:27.286Z,0.61
2023-03-24T08:47:07.028Z,0.61
2023-03-24T08:48:46.867Z,0.65
2023-03-24T08:50:26.589Z,0.65
2023-03-24T08:52:06.354Z,0.52
2023-03-24T08:53:46.177Z,0.39
2023-03-24T08:55:25.919Z,0.33
2023-03-24T08:57:05.741Z,0.36
2023-03-24T08:58:45.480Z,0.43
2023-03-24T09:00:25.203Z,0.51
2023-03-24T09:02:04.966Z,0.58
2023-03-24T09:03:44.732Z,0.66
2023-03-24T09:05:24.517Z,0.7
2023-03-24T09:07:04.295Z,0.72
2023-03-24T09:08:44.061Z,0.69
2023-03-24T09:10:23.864Z,0.85
2023-03-24T09:12:03.580Z,0.91
2023-03-24T09:13:43.401Z,0.98
2023-03-24T09:15:23.126Z,1.01
2023-03-24T09:17:02.893Z,1.16
2023-03-24T09:18:42.674Z,1.25
2023-03-24T09:20:22.582Z,1.12
2023-03-24T09:22:02.221Z,1.05
2023-03-24T09:23:42.051Z,1.03
2023-03-24T09:25:21.748Z,1.03
2023-03-24T09:27:01.563Z,0.94
2023-03-24T09:28:41.303Z,0.75
2023-03-24T09:30:21.074Z,0.62
2023-03-24T09:32:00.822Z,0.63
2023-03-24T09:33:40.615Z,0.61
2023-03-24T09:35:20.366Z,0.58
2023-03-24T09:37:00.140Z,0.61
2023-03-24T09:38:39.961Z,0.64
2023-03-24T09:40:19.681Z,1.01
2023-03-24T09:41:59.502Z,1.46
2023-03-24T09:43:39.227Z,1.16
2023-03-24T09:45:19.000Z,1
2023-03-24T09:46:58.768Z,1.01
2023-03-24T09:48:38.516Z,1
2023-03-24T09:50:18.402Z,1.02
2023-03-24T09:51:58.080Z,0.99
2023-03-24T09:53:37.898Z,1.03
2023-03-24T09:55:17.664Z,1
2023-03-24T09:56:57.537Z,1.02
2023-03-24T09:58:37.255Z,1
2023-03-24T10:00:16.926Z,1.01
2023-03-24T10:01:56.695Z,1.03
2023-03-24T10:03:36.504Z,1.04
2023-03-24T10:05:16.306Z,1.17
2023-03-24T10:06:56.148Z,1.02
2023-03-24T10:08:35.864Z,1.04
2023-03-24T10:10:15.656Z,1.04
2023-03-24T10:11:55.343Z,1.02
2023-03-24T10:13:35.142Z,1.04
2023-03-24T10:15:14.918Z,1.04
2023-03-24T10:16:54.674Z,1.04
2023-03-24T10:18:34.463Z,1.05
2023-03-24T10:20:14.249Z,1.04
2023-03-24T10:21:53.993Z,0.6
2023-03-24T10:23:33.717Z,0.4
2023-03-24T10:25:13.569Z,0.57
2023-03-24T10:26:53.258Z,0.46
2023-03-24T10:28:33.021Z,0.3
2023-03-24T10:30:12.834Z,0.35
2023-03-24T10:31:52.591Z,0.4
2023-03-24T10:33:32.344Z,0.6
2023-03-24T10:35:12.143Z,0.96
2023-03-24T10:36:52.009Z,0.93
2023-03-24T10:38:31.853Z,1.46
2023-03-24T10:40:11.449Z,1.15
2023-03-24T10:41:51.206Z,1.09
2023-03-24T10:43:30.968Z,1.05
2023-03-24T10:45:10.734Z,1.03
2023-03-24T10:46:50.551Z,1.01
2023-03-24T10:48:30.269Z,1.02
2023-03-24T10:50:10.093Z,1.01
2023-03-24T10:51:49.816Z,1.03
2023-03-24T10:53:29.686Z,1.02
2023-03-24T10:55:09.343Z,1.03
2023-03-24T10:56:49.155Z,0.97
2023-03-24T10:58:28.890Z,1.04
2023-03-24T11:00:08.666Z,1.01
2023-03-24T11:01:48.531Z,1.03
2023-03-24T11:03:28.227Z,1.04
2023-03-24T11:05:07.988Z,1.04
2023-03-24T11:06:47.803Z,1.04
2023-03-24T11:08:27.530Z,1.05
2023-03-24T11:10:07.295Z,1.07
2023-03-24T11:11:47.056Z,1.04
2023-03-24T11:13:26.859Z,1.07
2023-03-24T11:15:06.592Z,1.07
2023-03-24T11:16:46.375Z,1.08
2023-03-24T11:18:26.240Z,1.08
2023-03-24T11:20:05.912Z,1.05
2023-03-24T11:21:45.693Z,1.05
2023-03-24T11:23:25.451Z,1.16
2023-03-24T11:25:05.375Z,1.08
2023-03-24T11:26:45.186Z,1.04
2023-03-24T11:28:24.901Z,1.11
2023-03-24T11:30:04.669Z,1.07
2023-03-24T11:31:44.466Z,1.07
2023-03-24T11:33:24.269Z,1.12
2023-03-24T11:35:03.971Z,1.09
2023-03-24T11:36:43.763Z,1.1
2023-03-24T11:38:23.536Z,1.1
2023-03-24T11:40:03.281Z,1.07
2023-03-24T11:41:43.053Z,1.09
2023-03-24T11:43:22.830Z,1.12
2023-03-24T11:45:02.624Z,1.08
2023-03-24T11:46:42.377Z,1.13
2023-03-24T11:48:22.156Z,1.1
2023-03-24T11:50:01.909Z,1.09
2023-03-24T11:51:41.687Z,1.09
2023-03-24T11:53:21.451Z,1.13
2023-03-24T11:55:01.244Z,1.09
2023-03-24T11:56:40.993Z,1.12
2023-03-24T11:58:20.763Z,1.1
2023-03-24T12:00:00.530Z,1.14
2023-03-24T12:01:40.307Z,1.1
2023-03-24T12:03:20.079Z,1.14
2023-03-24T12:05:00.046Z,1.13
2023-03-24T12:06:39.624Z,1.12
2023-03-24T12:08:19.376Z,1.13
2023-03-24T12:09:59.172Z,1.14
2023-03-24T12:11:38.929Z,1.12
2023-03-24T12:13:18.714Z,1.12
2023-03-24T12:14:58.497Z,1.15
2023-03-24T12:16:38.234Z,1.15
2023-03-24T12:18:18.026Z,1.14
2023-03-24T12:19:57.856Z,1.14
2023-03-24T12:21:37.554Z,1.14
2023-03-24T12:23:17.353Z,1.14
2023-03-24T12:24:57.107Z,1.15
2023-03-24T12:26:36.932Z,1.16
2023-03-24T12:28:16.634Z,1.16
2023-03-24T12:29:56.412Z,1.16
2023-03-24T12:31:36.181Z,1.15
2023-03-24T12:33:15.959Z,1.13
2023-03-24T12:34:55.727Z,1.17
2023-03-24T12:36:35.507Z,1.17
2023-03-24T12:38:15.320Z,1.16
2023-03-24T12:39:55.046Z,1.16
2023-03-24T12:41:34.823Z,1.16
2023-03-24T12:43:14.609Z,1.16
2023-03-24T12:44:54.348Z,1.14
2023-03-24T12:46:34.131Z,1.17
2023-03-24T12:48:13.878Z,1.17
2023-03-24T12:49:53.741Z,1.16
2023-03-24T12:51:33.446Z,1.17
2023-03-24T12:53:13.205Z,1.2
2023-03-24T12:54:53.027Z,1.21
2023-03-24T12:56:32.742Z,1.2
2023-03-24T12:58:12.511Z,1.19
2023-03-24T12:59:52.343Z,1.16
2023-03-24T13:01:32.051Z,1.21
2023-03-24T13:03:11.819Z,1.2
2023-03-24T13:04:51.602Z,1.2
2023-03-24T13:06:31.455Z,1.21
2023-03-24T13:08:11.136Z,1.2
2023-03-24T13:09:50.907Z,1.19
2023-03-24T13:11:30.728Z,1.36
2023-03-24T13:13:10.453Z,1.22
2023-03-24T13:14:50.200Z,1.21
2023-03-24T13:16:29.994Z,1.23
2023-03-24T13:18:09.757Z,0
2023-03-24T13:19:49.529Z,0
2023-03-24T13:21:29.293Z,0
2023-03-24T13:23:09.063Z,0
2023-03-24T13:24:48.840Z,0
2023-03-24T13:26:28.610Z,0
2023-03-24T13:28:08.372Z,0
2023-03-24T13:29:48.136Z,0
2023-03-24T13:31:27.903Z,0
2023-03-24T13:33:07.679Z,0.13
2023-03-24T13:34:47.447Z,0.14
2023-03-24T13:36:27.335Z,0.18
2023-03-24T13:38:07.077Z,0.2
2023-03-24T13:39:46.945Z,0.23
2023-03-24T13:41:26.609Z,0.21
2023-03-24T13:43:06.455Z,0.21
2023-03-24T13:44:46.198Z,0.21
2023-03-24T13:46:25.893Z,0.22
2023-03-24T13:48:05.686Z,0.24
2023-03-24T13:49:45.445Z,0.23
2023-03-24T13:51:25.149Z,0.25
2023-03-24T13:53:04.921Z,0.25
2023-03-24T13:54:44.740Z,0.23
2023-03-24T13:56:24.476Z,0.25
2023-03-24T13:58:04.240Z,0.27
2023-03-24T13:59:44.125Z,0.27
2023-03-24T14:01:23.881Z,0.25
2023-03-24T14:03:03.546Z,0.25
2023-03-24T14:04:43.318Z,0.27
2023-03-24T14:06:23.137Z,0.25
2023-03-24T14:08:02.857Z,0.25
2023-03-24T14:09:42.622Z,0.26
2023-03-24T14:11:22.428Z,0.25
2023-03-24T14:13:02.212Z,0.27
2023-03-24T14:14:41.938Z,0.25
2023-03-24T14:16:21.714Z,0.26
2023-03-24T14:18:01.497Z,0.27
2023-03-24T14:19:41.263Z,0.28
2023-03-24T14:21:21.177Z,0.26
2023-03-24T14:23:00.792Z,0.25
2023-03-24T14:24:40.548Z,0.28
2023-03-24T14:26:20.320Z,0.22
2023-03-24T14:28:00.105Z,0.27
2023-03-24T14:29:39.862Z,0.23
2023-03-24T14:31:19.665Z,0.24
2023-03-24T14:32:59.417Z,0.24
2023-03-24T14:34:39.193Z,0.26
2023-03-24T14:36:18.965Z,0.25
2023-03-24T14:37:58.723Z,0.24
2023-03-24T14:39:38.507Z,0.24
2023-03-24T14:41:18.293Z,0.23
2023-03-24T14:42:58.140Z,0.29
2023-03-24T14:44:37.805Z,0.24
2023-03-24T14:46:17.566Z,0.24
2023-03-24T14:47:57.337Z,0.25
2023-03-24T14:49:37.108Z,0.27
2023-03-24T14:51:16.899Z,0.27
2023-03-24T14:52:56.660Z,0.26
2023-03-24T14:54:36.428Z,0.21
2023-03-24T14:56:16.209Z,0.23
2023-03-24T14:57:55.958Z,0.27
2023-03-24T14:59:35.742Z,0.23
2023-03-24T15:01:15.510Z,0.24
2023-03-24T15:02:55.283Z,0.23
2023-03-24T15:04:35.060Z,0.27
2023-03-24T15:06:14.815Z,0.23
2023-03-24T15:07:54.585Z,0.24
2023-03-24T15:09:34.359Z,0.23
2023-03-24T15:11:14.133Z,0.23
2023-03-24T15:12:53.920Z,0.27
2023-03-24T15:14:33.668Z,0.25
2023-03-24T15:16:13.436Z,0.27
2023-03-24T15:17:53.227Z,0.25
2023-03-24T15:19:32.976Z,0.26
2023-03-24T15:21:12.782Z,0.33
2023-03-24T15:22:52.694Z,0.27
2023-03-24T15:24:32.468Z,0.25
2023-03-24T15:26:12.307Z,0.25
2023-03-24T15:27:51.975Z,0.24
2023-03-24T15:29:31.625Z,0.23
2023-03-24T15:31:11.529Z,0.24
2023-03-24T15:32:51.279Z,0.27
2023-03-24T15:34:31.013Z,0.26
2023-03-24T15:36:10.794Z,0.23
2023-03-24T15:37:50.541Z,0.26
2023-03-24T15:39:30.218Z,0.24
2023-03-24T15:41:10.076Z,0.23
2023-03-24T15:42:49.893Z,0.24
2023-03-24T15:44:29.601Z,0.24
2023-03-24T15:46:09.316Z,0.25
2023-03-24T15:47:49.179Z,0.27
2023-03-24T15:49:28.917Z,0.23
2023-03-24T15:51:08.760Z,0.24
2023-03-24T15:52:48.500Z,0.24
2023-03-24T15:54:28.200Z,0.23
2023-03-24T15:56:07.941Z,0.24
2023-03-24T15:57:47.831Z,0.25
2023-03-24T15:59:27.466Z,0.23
2023-03-24T16:01:07.298Z,0.25
2023-03-24T16:02:47.111Z,0.25
2023-03-24T16:04:26.832Z,0.21
2023-03-24T16:06:06.679Z,0.25
2023-03-24T16:07:46.322Z,0.27
2023-03-24T16:09:26.134Z,0.24
2023-03-24T16:11:05.962Z,0.21
2023-03-24T16:12:45.617Z,0.22
2023-03-24T16:14:25.433Z,0.23
2023-03-24T16:16:05.184Z,0.28
2023-03-24T16:17:45.012Z,0.25
2023-03-24T16:19:24.767Z,0.22
2023-03-24T16:21:04.511Z,0.24
2023-03-24T16:22:44.256Z,0.21
2023-03-24T16:24:24.170Z,0.22
2023-03-24T16:26:03.798Z,0.21
2023-03-24T16:27:43.571Z,0.25
2023-03-24T16:29:23.449Z,0.26
2023-03-24T16:31:03.126Z,0.23
2023-03-24T16:32:42.883Z,0.23
2023-03-24T16:34:22.702Z,0.26
2023-03-24T16:36:02.537Z,0.25
2023-03-24T16:37:42.295Z,0.21
2023-03-24T16:39:21.970Z,0.43
2023-03-24T16:41:01.758Z,0.21
2023-03-24T16:42:41.510Z,0.25
2023-03-24T16:44:21.346Z,0.23
2023-03-24T16:46:01.040Z,0.24
2023-03-24T16:47:40.815Z,0.26
2023-03-24T16:49:20.604Z,0.23
2023-03-24T16:51:00.364Z,0.22
2023-03-24T16:52:40.136Z,0.25
2023-03-24T16:54:19.944Z,0.24
2023-03-24T16:55:59.704Z,0.23
2023-03-24T16:57:39.458Z,0.23
2023-03-24T16:59:19.258Z,0.26
2023-03-24T17:00:58.999Z,0.23
2023-03-24T17:02:38.756Z,0.25
2023-03-24T17:04:18.526Z,0.24
2023-03-24T17:05:58.288Z,0.26
2023-03-24T17:07:38.059Z,0.24
2023-03-24T17:09:17.889Z,0.18
2023-03-24T17:10:57.613Z,0.1
2023-03-24T17:12:37.383Z,0.05
2023-03-24T17:14:17.148Z,0.01
2023-03-24T17:15:56.907Z,0.01
2023-03-24T17:17:36.683Z,0
2023-03-24T17:19:16.467Z,0
2023-03-24T17:20:56.216Z,0
2023-03-24T17:22:35.995Z,0
2023-03-24T17:24:15.772Z,0
2023-03-24T17:25:55.522Z,0
2023-03-24T17:27:35.301Z,0
2023-03-24T17:29:15.057Z,0
2023-03-24T17:30:54.828Z,0
2023-03-24T17:32:34.586Z,0
2023-03-24T17:34:14.356Z,0
2023-03-24T17:35:54.127Z,0
2023-03-24T17:37:33.887Z,0
2023-03-24T17:39:13.678Z,0
2023-03-24T17:40:53.492Z,0
2023-03-24T17:42:33.194Z,0
2023-03-24T17:44:12.973Z,0
2023-03-24T17:45:52.732Z,0
2023-03-24T17:47:32.522Z,0
2023-03-24T17:49:12.311Z,0
2023-03-24T17:50:52.026Z,0
2023-03-24T17:52:31.794Z,0
2023-03-24T17:54:11.591Z,0
2023-03-24T17:55:51.336Z,0
2023-03-24T17:57:31.157Z,0
2023-03-24T17:59:10.878Z,0
2023-03-24T18:00:50.671Z,0
2023-03-24T18:02:30.397Z,0
2023-03-24T18:04:10.175Z,0
2023-03-24T18:05:49.944Z,0
2023-03-24T18:07:29.720Z,0
2023-03-24T18:09:09.466Z,0
2023-03-24T18:10:49.232Z,0
2023-03-24T18:12:29.007Z,0
2023-03-24T18:14:08.794Z,0
2023-03-24T18:15:48.584Z,0
2023-03-24T18:17:28.317Z,0
2023-03-24T18:19:08.097Z,0
2023-03-24T18:20:47.839Z,0
2023-03-24T18:22:27.614Z,0
2023-03-24T18:24:07.385Z,0
2023-03-24T18:25:47.132Z,0
2023-03-24T18:27:26.910Z,0
2023-03-24T18:29:06.699Z,0
2023-03-24T18:30:46.437Z,0
2023-03-24T18:32:26.210Z,0
2023-03-24T18:34:06.020Z,0
2023-03-24T18:35:45.742Z,0
2023-03-24T18:37:25.544Z,0
2023-03-24T18:39:05.274Z,0
2023-03-24T18:40:45.051Z,0
2023-03-24T18:42:24.930Z,0
2023-03-24T18:44:04.623Z,0
2023-03-24T18:45:44.349Z,0
2023-03-24T18:47:24.120Z,0
2023-03-24T18:49:03.906Z,0
2023-03-24T18:50:43.677Z,0
2023-03-24T18:52:23.491Z,0
2023-03-24T18:54:03.210Z,0
2023-03-24T18:55:42.959Z,0
2023-03-24T18:57:22.731Z,0
2023-03-24T18:59:02.499Z,0
2023-03-24T19:00:42.263Z,0
2023-03-24T19:02:22.034Z,0
2023-03-24T19:04:01.820Z,0
2023-03-24T19:05:41.573Z,0
2023-03-24T19:07:21.339Z,0
2023-03-24T19:09:01.126Z,0
2023-03-24T19:10:40.873Z,0
2023-03-24T19:12:20.632Z,0
2023-03-24T19:14:00.467Z,0
2023-03-24T19:15:40.173Z,0
2023-03-24T19:17:19.937Z,0
2023-03-24T19:18:59.713Z,0
2023-03-24T19:20:39.479Z,0
2023-03-24T19:22:19.240Z,0
2023-03-24T19:23:59.027Z,0
2023-03-24T19:25:38.767Z,0
2023-03-24T19:27:18.553Z,0
2023-03-24T19:28:58.316Z,0
2023-03-24T19:30:38.148Z,0
2023-03-24T19:32:17.848Z,0
2023-03-24T19:33:57.797Z,0
2023-03-24T19:35:37.380Z,0
2023-03-24T19:37:17.156Z,0
2023-03-24T19:38:56.917Z,0
2023-03-24T19:40:36.677Z,0
2023-03-24T19:42:16.452Z,0
2023-03-24T19:43:56.246Z,0
2023-03-24T19:45:35.986Z,0
2023-03-24T19:47:15.754Z,0
2023-03-24T19:48:55.517Z,0
2023-03-24T19:50:35.291Z,0
2023-03-24T19:52:15.217Z,0
2023-03-24T19:53:54.844Z,0
2023-03-24T19:55:34.621Z,0
2023-03-24T19:57:14.369Z,0
2023-03-24T19:58:54.130Z,0
2023-03-24T20:00:33.920Z,0
2023-03-24T20:02:13.796Z,0
2023-03-24T20:03:53.435Z,0
2023-03-24T20:05:33.192Z,0
2023-03-24T20:07:12.958Z,0
2023-03-24T20:08:52.726Z,0
2023-03-24T20:10:32.507Z,0
2023-03-24T20:12:12.277Z,0
2023-03-24T20:13:52.033Z,0
2023-03-24T20:15:31.796Z,0
2023-03-24T20:17:11.584Z,0
2023-03-24T20:18:51.340Z,0
2023-03-24T20:20:31.098Z,0
2023-03-24T20:22:10.870Z,0
2023-03-24T20:23:50.639Z,0
2023-03-24T20:25:30.394Z,0
2023-03-24T20:27:10.170Z,0
2023-03-24T20:28:49.955Z,0
2023-03-24T20:30:29.712Z,0
2023-03-24T20:32:09.474Z,0
2023-03-24T20:33:49.237Z,0
2023-03-24T20:35:29.011Z,0
2023-03-24T20:37:08.771Z,0
2023-03-24T20:38:48.557Z,0
2023-03-24T20:40:28.330Z,0
2023-03-24T20:42:08.074Z,0
2023-03-24T20:43:47.844Z,0
2023-03-24T20:45:27.604Z,0
2023-03-24T20:47:07.373Z,0
2023-03-24T20:48:47.150Z,0
2023-03-24T20:50:26.929Z,0
2023-03-24T20:52:06.681Z,0
2023-03-24T20:53:46.434Z,0
2023-03-24T20:55:26.214Z,0
2023-03-24T20:57:06.000Z,0
2023-03-24T20:58:45.747Z,0
2023-03-24T21:00:25.512Z,0
2023-03-24T21:02:05.287Z,0
2023-03-24T21:03:45.059Z,0
2023-03-24T21:05:24.870Z,0
2023-03-24T21:07:04.580Z,0
2023-03-24T21:08:44.353Z,0
2023-03-24T21:10:24.124Z,0
2023-03-24T21:12:03.886Z,0
2023-03-24T21:13:43.656Z,0
2023-03-24T21:15:23.487Z,0
2023-03-24T21:17:03.181Z,0
2023-03-24T21:18:42.973Z,0
2023-03-24T21:20:22.713Z,0
2023-03-24T21:22:02.496Z,0
2023-03-24T21:23:42.281Z,0
2023-03-24T21:25:22.028Z,0
2023-03-24T21:27:01.800Z,0
2023-03-24T21:28:41.570Z,0
2023-03-24T21:30:21.344Z,0
2023-03-24T21:32:01.098Z,0
2023-03-24T21:33:40.873Z,0
2023-03-24T21:35:20.646Z,0
2023-03-24T21:37:00.399Z,0
2023-03-24T21:38:40.196Z,0
2023-03-24T21:40:19.937Z,0
2023-03-24T21:41:59.692Z,0
2023-03-24T21:43:39.471Z,0
2023-03-24T21:45:19.229Z,0
2023-03-24T21:46:59.009Z,0
2023-03-24T21:48:38.768Z,0
2023-03-24T21:50:18.563Z,0
2023-03-24T21:51:58.312Z,0
2023-03-24T21:53:38.067Z,0
2023-03-24T21:55:17.840Z,0
2023-03-24T21:56:57.598Z,0
2023-03-24T21:58:37.371Z,0
2023-03-24T22:00:17.141Z,0
2023-03-24T22:01:56.906Z,0
2023-03-24T22:03:36.684Z,0
2023-03-24T22:05:16.432Z,0
2023-03-24T22:06:56.217Z,0
2023-03-24T22:08:35.986Z,0
2023-03-24T22:10:15.790Z,0
2023-03-24T22:11:55.522Z,0
2023-03-24T22:13:35.292Z,0
2023-03-24T22:15:15.061Z,0
2023-03-24T22:16:54.813Z,0
2023-03-24T22:18:34.584Z,0
2023-03-24T22:20:14.361Z,0
2023-03-24T22:21:54.147Z,0
2023-03-24T22:23:33.905Z,0
2023-03-24T22:25:13.656Z,0
2023-03-24T22:26:53.420Z,0
2023-03-24T22:28:33.186Z,0
2023-03-24T22:30:12.972Z,0
2023-03-24T22:31:52.714Z,0
2023-03-24T22:33:32.503Z,0
2023-03-24T22:35:12.262Z,0
2023-03-24T22:36:52.031Z,0
2023-03-24T22:38:31.809Z,0
2023-03-24T22:40:11.567Z,0
2023-03-24T22:41:51.323Z,0
2023-03-24T22:43:31.106Z,0
2023-03-24T22:45:10.869Z,0
2023-03-24T22:46:50.632Z,0
2023-03-24T22:48:30.399Z,0
2023-03-24T22:50:10.161Z,0
2023-03-24T22:51:49.950Z,0
2023-03-24T22:53:29.703Z,0
2023-03-24T22:55:09.465Z,0
2023-03-24T22:56:49.233Z,0
2023-03-24T22:58:28.997Z,0
2023-03-24T23:00:08.783Z,0
2023-03-24T23:01:48.531Z,0
2023-03-24T23:03:28.297Z,0
2023-03-24T23:05:08.066Z,0
2023-03-24T23:06:47.835Z,0
2023-03-24T23:08:27.610Z,0
2023-03-24T23:10:07.362Z,0
2023-03-24T23:11:47.133Z,0
2023-03-24T23:13:26.915Z,0
2023-03-24T23:15:06.678Z,0
2023-03-24T23:16:46.452Z,0
2023-03-24T23:18:26.204Z,0
2023-03-24T23:20:05.976Z,0